createdAt,value
2023-03-18T00:00:11.423Z,41.58
2023-03-18T00:02:39.129Z,41.32
2023-03-18T00:05:07.740Z,41.49
2023-03-18T00:07:36.249Z,41.29
2023-03-18T00:10:04.518Z,41.19
2023-03-18T00:12:32.470Z,41.88
2023-03-18T00:14:59.726Z,41.28
2023-03-18T00:17:26.396Z,41.54
2023-03-18T00:19:52.856Z,41.62
2023-03-18T00:22:19.402Z,41.50
2023-03-18T00:24:45.991Z,41.36
2023-03-18T00:27:12.821Z,41.35
2023-03-18T00:29:40.090Z,41.37
2023-03-18T00:32:06.876Z,41.79
2023-03-18T00:34:33.497Z,41.95
2023-03-18T00:37:00.245Z,41.73
2023-03-18T00:39:28.850Z,41.51
2023-03-18T00:41:56.744Z,41.49
2023-03-18T00:44:25.341Z,41.80
2023-03-18T00:46:52.082Z,41.72
2023-03-18T00:49:19.131Z,41.83
2023-03-18T00:51:46.595Z,41.78
2023-03-18T00:54:16.328Z,41.58
2023-03-18T00:56:43.074Z,41.83
2023-03-18T00:59:09.570Z,42.01
2023-03-18T01:01:36.720Z,42.17
2023-03-18T01:04:04.391Z,41.79
2023-03-18T01:06:34.024Z,41.70
2023-03-18T01:09:05.010Z,41.52
2023-03-18T01:11:31.715Z,41.70
2023-03-18T01:13:59.481Z,41.85
2023-03-18T01:16:26.584Z,41.65
2023-03-18T01:18:53.838Z,41.96
2023-03-18T01:21:20.942Z,41.54
2023-03-18T01:23:48.348Z,42.01
2023-03-18T01:26:15.391Z,41.47
2023-03-18T01:28:42.408Z,41.25
2023-03-18T01:31:09.618Z,41.62
2023-03-18T01:33:36.708Z,41.59
2023-03-18T01:36:05.000Z,41.17
2023-03-18T01:38:32.501Z,41.36
2023-03-18T01:41:00.457Z,41.18
2023-03-18T01:43:30.678Z,40.94
2023-03-18T01:45:59.246Z,41.32
2023-03-18T01:48:29.868Z,40.99
2023-03-18T01:51:01.108Z,41.26
2023-03-18T01:53:31.750Z,41.27
2023-03-18T01:55:59.190Z,40.79
2023-03-18T01:58:32.020Z,40.82
2023-03-18T02:01:02.707Z,41.00
2023-03-18T02:03:29.446Z,40.84
2023-03-18T02:05:56.028Z,41.20
2023-03-18T02:08:22.711Z,40.89
2023-03-18T02:10:49.819Z,40.99
2023-03-18T02:13:17.030Z,41.23
2023-03-18T02:15:48.222Z,41.12
2023-03-18T02:18:29.933Z,41.38
2023-03-18T02:21:23.007Z,41.05
2023-03-18T02:23:58.623Z,41.45
2023-03-18T02:26:48.221Z,41.42
2023-03-18T02:29:15.938Z,41.14
2023-03-18T02:31:43.397Z,41.47
2023-03-18T02:34:10.398Z,41.15
2023-03-18T02:36:37.262Z,41.36
2023-03-18T02:39:04.637Z,41.65
2023-03-18T02:41:34.081Z,41.65
2023-03-18T02:44:01.344Z,41.40
2023-03-18T02:46:31.222Z,42.02
2023-03-18T02:48:59.962Z,41.55
2023-03-18T02:51:27.204Z,41.56
2023-03-18T02:54:01.743Z,41.67
2023-03-18T02:56:28.252Z,41.81
2023-03-18T02:58:55.151Z,41.85
2023-03-18T03:01:22.259Z,41.54
2023-03-18T03:03:48.876Z,41.46
2023-03-18T03:06:15.723Z,41.83
2023-03-18T03:08:42.360Z,41.90
2023-03-18T03:11:08.900Z,42.50
2023-03-18T03:13:35.646Z,42.00
2023-03-18T03:16:02.514Z,41.67
2023-03-18T03:18:30.439Z,42.13
2023-03-18T03:20:56.928Z,42.24
2023-03-18T03:23:23.459Z,42.21
2023-03-18T03:25:50.172Z,41.77
2023-03-18T03:28:17.068Z,41.98
2023-03-18T03:30:43.933Z,41.67
2023-03-18T03:33:10.986Z,41.66
2023-03-18T03:35:38.992Z,42.15
2023-03-18T03:38:05.666Z,42.16
2023-03-18T03:40:32.412Z,42.09
2023-03-18T03:42:59.288Z,42.07
2023-03-18T03:45:25.768Z,42.34
2023-03-18T03:47:52.516Z,41.92
2023-03-18T03:50:19.091Z,41.70
2023-03-18T03:52:47.548Z,41.40
2023-03-18T03:55:17.434Z,41.78
2023-03-18T03:57:45.164Z,42.00
2023-03-18T04:00:14.182Z,41.88
2023-03-18T04:02:42.016Z,41.78
2023-03-18T04:05:09.469Z,41.34
2023-03-18T04:07:36.289Z,41.46
2023-03-18T04:10:03.195Z,41.30
2023-03-18T04:12:29.713Z,41.59
2023-03-18T04:14:56.484Z,41.46
2023-03-18T04:17:23.315Z,41.62
2023-03-18T04:19:50.152Z,41.72
2023-03-18T04:22:16.639Z,41.74
2023-03-18T04:24:43.142Z,42.11
2023-03-18T04:27:09.628Z,41.65
2023-03-18T04:29:36.142Z,41.39
2023-03-18T04:32:02.840Z,41.49
2023-03-18T04:34:29.408Z,41.44
2023-03-18T04:36:56.044Z,41.33
2023-03-18T04:39:23.021Z,41.43
2023-03-18T04:41:49.481Z,41.32
2023-03-18T04:44:17.287Z,41.65
2023-03-18T04:46:43.824Z,41.53
2023-03-18T04:49:10.577Z,41.70
2023-03-18T04:51:37.648Z,41.59
2023-03-18T04:54:04.435Z,41.75
2023-03-18T04:56:31.479Z,41.75
2023-03-18T04:58:58.016Z,41.53
2023-03-18T05:01:24.634Z,41.70
2023-03-18T05:03:51.806Z,41.56
2023-03-18T05:06:27.064Z,42.07
2023-03-18T05:08:54.286Z,41.05
2023-03-18T05:11:21.357Z,41.76
2023-03-18T05:13:52.137Z,41.66
2023-03-18T05:16:19.173Z,41.67
2023-03-18T05:18:47.373Z,41.23
2023-03-18T05:21:13.994Z,41.36
2023-03-18T05:23:41.079Z,41.28
2023-03-18T05:26:07.763Z,41.44
2023-03-18T05:28:34.365Z,41.57
2023-03-18T05:31:00.984Z,41.44
2023-03-18T05:33:27.465Z,41.01
2023-03-18T05:35:53.964Z,41.12
2023-03-18T05:38:20.640Z,40.85
2023-03-18T05:40:48.519Z,41.30
2023-03-18T05:43:15.013Z,40.57
2023-03-18T05:45:42.315Z,40.29
2023-03-18T05:48:09.013Z,40.34
2023-03-18T05:50:37.618Z,40.68
2023-03-18T05:53:05.528Z,40.68
2023-03-18T05:55:33.127Z,40.40
2023-03-18T05:58:00.491Z,39.93
2023-03-18T06:00:28.805Z,39.35
2023-03-18T09:09:37.346Z,27.44
2023-03-18T09:12:11.870Z,27.54
2023-03-18T09:14:38.946Z,26.90
2023-03-18T09:17:09.254Z,27.57
2023-03-18T09:19:36.598Z,27.32
2023-03-18T09:22:04.575Z,27.41
2023-03-18T09:24:31.972Z,27.18
2023-03-18T09:26:59.993Z,27.54
2023-03-18T09:29:27.770Z,27.81
2023-03-18T09:31:54.730Z,28.18
2023-03-18T09:34:21.625Z,27.81
2023-03-18T09:36:51.328Z,27.51
2023-03-18T09:39:19.240Z,27.49
2023-03-18T09:42:21.708Z,28.17
2023-03-18T09:44:57.296Z,27.91
2023-03-18T09:47:48.221Z,28.22
2023-03-18T09:50:34.260Z,27.99
2023-03-18T09:53:11.890Z,28.12
2023-03-18T09:55:51.035Z,28.12
2023-03-18T09:58:26.303Z,27.19
2023-03-18T10:01:00.856Z,27.70
2023-03-18T10:03:51.105Z,27.59
2023-03-18T10:06:20.587Z,27.92
2023-03-18T10:09:24.806Z,27.79
2023-03-18T10:11:52.599Z,27.14
2023-03-18T10:14:43.893Z,26.70
2023-03-18T10:17:18.709Z,26.95
2023-03-18T10:19:52.465Z,26.19
2023-03-18T10:23:00.446Z,26.16
2023-03-18T10:26:08.612Z,26.55
2023-03-18T10:28:59.395Z,26.21
2023-03-18T10:31:55.033Z,26.23
2023-03-18T10:34:23.420Z,26.74
2023-03-18T10:36:57.302Z,26.24
2023-03-18T10:39:26.359Z,26.29
2023-03-18T10:41:54.982Z,26.67
2023-03-18T10:44:36.836Z,27.25
2023-03-18T10:47:22.451Z,27.41
2023-03-18T10:50:14.734Z,27.04
2023-03-18T10:52:59.122Z,26.93
2023-03-18T10:55:31.095Z,26.88
2023-03-18T10:57:57.833Z,26.46
2023-03-18T11:00:33.019Z,26.93
2023-03-18T11:03:00.604Z,26.46
2023-03-18T11:05:33.562Z,26.02
2023-03-18T11:08:06.787Z,25.50
2023-03-18T11:10:46.146Z,26.64
2023-03-18T11:13:20.026Z,26.25
2023-03-18T11:15:50.739Z,26.90
2023-03-18T11:18:20.313Z,26.67
2023-03-18T11:20:49.291Z,26.32
2023-03-18T11:23:20.453Z,26.90
2023-03-18T11:25:48.840Z,26.82
2023-03-18T11:28:30.176Z,26.45
2023-03-18T11:30:58.601Z,26.89
2023-03-18T11:33:29.686Z,26.38
2023-03-18T11:36:06.343Z,26.08
2023-03-18T11:38:35.888Z,25.96
2023-03-18T11:41:09.103Z,26.12
2023-03-18T11:43:38.060Z,26.01
2023-03-18T11:46:07.564Z,26.00
2023-03-18T11:48:38.608Z,26.39
2023-03-18T11:51:30.199Z,26.21
2023-03-18T11:53:56.811Z,26.10
2023-03-18T11:56:47.408Z,25.78
2023-03-18T11:59:29.026Z,25.48
2023-03-18T12:02:29.526Z,26.07
2023-03-18T12:04:59.395Z,26.12
2023-03-18T12:07:47.329Z,25.96
2023-03-18T12:10:15.330Z,26.00
2023-03-18T12:13:26.176Z,26.56
2023-03-18T12:16:15.058Z,26.49
2023-03-18T12:19:11.134Z,25.40
2023-03-18T12:21:44.646Z,25.90
2023-03-18T12:24:26.840Z,25.33
2023-03-18T12:27:03.210Z,25.35
2023-03-18T12:29:54.905Z,25.91
2023-03-18T12:32:33.714Z,26.35
2023-03-18T12:35:27.838Z,26.32
2023-03-18T12:38:17.639Z,26.15
2023-03-18T12:41:25.289Z,26.25
2023-03-18T12:43:56.206Z,26.27
2023-03-18T12:46:30.765Z,26.01
2023-03-18T12:49:04.838Z,25.79
2023-03-18T12:52:00.825Z,26.31
2023-03-18T12:54:56.783Z,26.22
2023-03-18T12:57:51.140Z,25.46
2023-03-18T13:00:36.790Z,26.08
2023-03-18T13:03:24.742Z,26.62
2023-03-18T13:06:05.349Z,26.58
2023-03-18T13:09:00.426Z,26.11
2023-03-18T13:11:38.624Z,26.59
2023-03-18T13:14:42.685Z,26.78
2023-03-18T13:17:37.271Z,25.89
2023-03-18T13:20:22.346Z,25.62
2023-03-18T13:22:52.197Z,25.85
2023-03-18T13:25:41.250Z,25.45
2023-03-18T13:28:26.998Z,25.47
2023-03-18T13:31:01.186Z,25.32
2023-03-18T13:33:54.027Z,25.03
2023-03-18T13:36:29.180Z,25.12
2023-03-18T13:39:27.577Z,25.26
2023-03-18T13:42:28.646Z,25.03
2023-03-18T13:45:01.715Z,25.00
2023-03-18T13:47:31.672Z,25.23
2023-03-18T13:50:01.200Z,25.51
2023-03-18T13:52:35.234Z,25.47
2023-03-18T13:55:07.273Z,25.84
2023-03-18T13:57:42.730Z,25.50
2023-03-18T14:00:22.594Z,26.06
2023-03-18T14:03:02.903Z,26.56
2023-03-18T14:05:32.450Z,26.56
2023-03-18T14:08:00.353Z,26.72
2023-03-18T14:10:27.732Z,26.52
2023-03-18T14:12:54.372Z,26.33
2023-03-18T14:15:23.702Z,26.22
2023-03-18T14:17:56.971Z,26.46
2023-03-18T14:20:28.757Z,26.65
2023-03-18T14:22:57.263Z,26.21
2023-03-18T14:25:39.406Z,26.61
2023-03-18T14:28:09.470Z,26.62
2023-03-18T14:30:36.239Z,26.75
2023-03-18T14:33:25.897Z,26.31
2023-03-18T14:36:01.996Z,26.17
2023-03-18T14:38:38.294Z,26.34
2023-03-18T14:41:23.461Z,26.51
2023-03-18T14:44:03.080Z,26.35
2023-03-18T14:46:34.247Z,27.90
2023-03-18T14:49:00.948Z,26.19
2023-03-18T14:51:30.548Z,26.40
2023-03-18T14:54:04.686Z,26.33
2023-03-18T14:56:38.727Z,26.38
2023-03-18T14:59:05.245Z,26.88
2023-03-18T15:01:36.651Z,26.73
2023-03-18T15:04:05.150Z,27.35
2023-03-18T15:06:32.437Z,27.49
2023-03-18T15:09:06.927Z,27.61
2023-03-18T15:11:41.329Z,27.59
2023-03-18T15:14:30.097Z,27.46
2023-03-18T15:16:59.923Z,27.38
2023-03-18T15:19:29.002Z,27.90
2023-03-18T15:21:58.062Z,27.83
2023-03-18T15:24:26.571Z,28.15
2023-03-18T15:27:30.829Z,27.94
2023-03-18T15:29:59.298Z,28.37
2023-03-18T15:32:33.883Z,28.28
2023-03-18T15:35:15.492Z,27.95
2023-03-18T15:37:43.924Z,28.45
2023-03-18T15:40:22.438Z,28.23
2023-03-18T15:42:49.752Z,28.91
2023-03-18T15:45:21.509Z,28.52
2023-03-18T15:47:48.684Z,28.72
2023-03-18T15:50:18.792Z,28.70
2023-03-18T15:52:47.810Z,28.99
2023-03-18T15:55:31.870Z,29.17
2023-03-18T15:57:59.140Z,29.31
2023-03-18T16:00:26.404Z,29.39
2023-03-18T16:02:54.172Z,29.62
2023-03-18T16:05:26.616Z,29.50
2023-03-18T16:07:53.955Z,29.23
2023-03-18T16:10:23.155Z,29.54
2023-03-18T16:13:00.854Z,29.48
2023-03-18T16:15:28.557Z,30.24
2023-03-18T16:17:56.487Z,29.86
2023-03-18T16:20:26.125Z,29.75
2023-03-18T16:22:52.745Z,30.05
2023-03-18T16:25:19.765Z,30.13
2023-03-18T16:27:48.908Z,30.02
2023-03-18T16:30:30.639Z,30.12
2023-03-18T16:32:58.325Z,30.21
2023-03-18T16:35:33.647Z,29.99
2023-03-18T16:38:00.975Z,30.07
2023-03-18T16:40:29.626Z,29.96
2023-03-18T16:42:56.643Z,29.72
2023-03-18T16:45:31.363Z,29.89
2023-03-18T16:48:04.306Z,30.27
2023-03-18T16:50:35.103Z,30.24
2023-03-18T16:53:02.978Z,29.89
2023-03-18T16:55:29.786Z,29.86
2023-03-18T16:57:59.256Z,30.40
2023-03-18T17:00:32.313Z,30.48
2023-03-18T17:03:00.610Z,30.42
2023-03-18T17:05:28.282Z,30.51
2023-03-18T17:07:55.545Z,30.44
2023-03-18T17:10:24.348Z,30.49
2023-03-18T17:13:02.855Z,30.39
2023-03-18T17:15:32.013Z,30.48
2023-03-18T17:17:59.753Z,30.36
2023-03-18T17:20:28.626Z,30.63
2023-03-18T17:22:55.732Z,30.39
2023-03-18T17:25:24.483Z,30.56
2023-03-18T17:28:06.120Z,30.25
2023-03-18T17:30:38.094Z,30.42
2023-03-18T17:33:25.416Z,30.28
2023-03-18T17:35:52.593Z,30.53
2023-03-18T17:38:20.020Z,30.54
2023-03-18T17:40:48.196Z,30.58
2023-03-18T17:43:28.133Z,30.77
2023-03-18T17:45:56.630Z,30.72
2023-03-18T17:48:25.851Z,30.70
2023-03-18T17:50:55.585Z,30.74
2023-03-18T17:53:27.099Z,30.76
2023-03-18T17:55:54.787Z,30.47
2023-03-18T17:58:23.780Z,30.85
2023-03-18T18:00:52.027Z,30.89
2023-03-18T18:03:27.477Z,30.95
2023-03-18T18:05:55.344Z,30.98
2023-03-18T18:08:24.727Z,30.98
2023-03-18T18:10:53.462Z,31.07
2023-03-18T18:13:23.643Z,31.01
2023-03-18T18:15:51.096Z,31.19
2023-03-18T18:18:25.253Z,31.01
2023-03-18T18:20:57.212Z,31.46
2023-03-18T18:23:37.098Z,31.34
2023-03-18T18:26:06.070Z,31.57
2023-03-18T18:28:34.677Z,31.57
2023-03-18T18:31:03.284Z,31.52
2023-03-18T18:33:31.365Z,31.63
2023-03-18T18:35:58.254Z,31.81
2023-03-18T18:38:28.383Z,31.79
2023-03-18T18:40:56.331Z,31.84
2023-03-18T18:43:24.481Z,32.44
2023-03-18T18:45:52.697Z,31.93
2023-03-18T18:48:27.541Z,32.00
2023-03-18T18:50:54.191Z,31.85
2023-03-18T18:53:32.006Z,31.93
2023-03-18T18:56:01.280Z,31.97
2023-03-18T18:58:30.414Z,31.85
2023-03-18T19:00:57.784Z,31.95
2023-03-18T19:03:29.242Z,32.31
2023-03-18T19:05:55.865Z,32.20
2023-03-18T19:08:27.678Z,32.15
2023-03-18T19:10:56.476Z,32.29
2023-03-18T19:13:28.345Z,32.21
2023-03-18T19:15:58.791Z,32.33
2023-03-18T19:18:27.087Z,32.47
2023-03-18T19:20:53.768Z,32.58
2023-03-18T19:23:25.867Z,32.81
2023-03-18T19:25:53.389Z,32.87
2023-03-18T19:28:47.705Z,32.89
2023-03-18T19:31:23.158Z,33.11
2023-03-18T19:33:51.587Z,33.17
2023-03-18T19:36:27.582Z,33.05
2023-03-18T19:38:55.245Z,33.11
2023-03-18T19:41:22.224Z,33.36
2023-03-18T19:43:49.590Z,33.23
2023-03-18T19:46:23.640Z,33.49
2023-03-18T19:48:50.726Z,33.54
2023-03-18T19:51:17.195Z,33.60
2023-03-18T19:53:45.275Z,33.50
2023-03-18T19:56:23.879Z,33.96
2023-03-18T19:58:54.932Z,33.68
2023-03-18T20:01:24.228Z,33.96
2023-03-18T20:03:54.612Z,33.70
2023-03-18T20:06:21.173Z,34.16
2023-03-18T20:08:47.740Z,34.05
2023-03-18T20:11:20.812Z,34.41
2023-03-18T20:13:48.119Z,34.55
2023-03-18T20:16:19.499Z,34.38
2023-03-18T20:18:46.293Z,34.46
2023-03-18T20:21:31.767Z,34.16
2023-03-18T20:24:02.184Z,34.63
2023-03-18T20:26:28.979Z,34.72
2023-03-18T20:28:56.184Z,34.59
2023-03-18T20:31:23.150Z,34.59
2023-03-18T20:33:49.780Z,34.46
2023-03-18T20:36:17.218Z,34.87
2023-03-18T20:38:45.585Z,34.46
2023-03-18T20:41:17.145Z,34.91
2023-03-18T20:43:44.644Z,34.92
2023-03-18T20:46:13.304Z,34.76
2023-03-18T20:48:40.429Z,34.84
2023-03-18T20:51:37.847Z,35.22
2023-03-18T20:54:17.711Z,35.07
2023-03-18T20:56:45.560Z,35.01
2023-03-18T20:59:12.490Z,35.25
2023-03-18T21:01:39.593Z,35.43
2023-03-18T21:04:07.614Z,35.37
2023-03-18T21:06:34.370Z,35.78
2023-03-18T21:09:01.305Z,35.41
2023-03-18T21:11:30.167Z,35.45
2023-03-18T21:13:56.840Z,35.58
2023-03-18T21:16:26.731Z,35.73
2023-03-18T21:18:53.400Z,35.77
2023-03-18T21:21:23.942Z,36.07
2023-03-18T21:23:52.234Z,35.91
2023-03-18T21:26:19.031Z,36.06
2023-03-18T21:28:45.918Z,36.09
2023-03-18T21:31:33.225Z,35.74
2023-03-18T21:34:01.327Z,36.04
2023-03-18T21:36:28.170Z,35.89
2023-03-18T21:38:55.443Z,35.98
2023-03-18T21:41:24.458Z,36.25
2023-03-18T21:43:51.125Z,36.26
2023-03-18T21:46:21.200Z,36.19
2023-03-18T21:48:48.151Z,36.29
2023-03-18T21:51:37.655Z,36.38
2023-03-18T21:54:05.782Z,36.31
2023-03-18T21:56:32.392Z,36.48
2023-03-18T21:58:59.075Z,36.40
2023-03-18T22:01:31.028Z,37.07
2023-03-18T22:03:58.056Z,36.85
2023-03-18T22:06:25.028Z,36.85
2023-03-18T22:08:52.128Z,36.59
2023-03-18T22:11:20.876Z,36.74
2023-03-18T22:13:48.314Z,37.17
2023-03-18T22:16:16.741Z,36.71
2023-03-18T22:18:44.382Z,36.98
2023-03-18T22:21:23.816Z,36.88
2023-03-18T22:23:50.801Z,36.75
2023-03-18T22:26:18.971Z,37.11
2023-03-18T22:28:46.220Z,37.05
2023-03-18T22:31:19.016Z,37.27
2023-03-18T22:33:46.383Z,37.62
2023-03-18T22:36:14.451Z,37.48
2023-03-18T22:38:41.112Z,37.21
2023-03-18T22:41:29.421Z,37.47
2023-03-18T22:43:57.883Z,37.95
2023-03-18T22:46:24.525Z,37.79
2023-03-18T22:48:51.107Z,37.82
2023-03-18T22:51:29.718Z,37.64
2023-03-18T22:53:56.789Z,37.79
2023-03-18T22:56:23.732Z,37.64
2023-03-18T22:58:50.545Z,37.89
2023-03-18T23:01:19.344Z,37.92
2023-03-18T23:03:47.385Z,38.10
2023-03-18T23:06:23.801Z,37.93
2023-03-18T23:08:50.496Z,37.97
2023-03-18T23:11:17.723Z,38.41
2023-03-18T23:13:49.705Z,37.88
2023-03-18T23:16:20.440Z,37.93
2023-03-18T23:18:47.484Z,38.10
2023-03-18T23:21:19.133Z,38.70
2023-03-18T23:23:45.813Z,38.62
2023-03-18T23:26:13.133Z,38.50
2023-03-18T23:28:45.632Z,38.94
2023-03-18T23:31:14.156Z,39.11
2023-03-18T23:33:40.834Z,38.91
2023-03-18T23:36:08.254Z,39.24
2023-03-18T23:38:34.786Z,39.40
2023-03-18T23:41:01.458Z,39.58
2023-03-18T23:43:27.995Z,38.96
2023-03-18T23:45:54.587Z,39.34
2023-03-18T23:48:21.278Z,39.42
2023-03-18T23:50:47.799Z,39.26
2023-03-18T23:53:14.334Z,39.19
2023-03-18T23:55:40.912Z,39.57
2023-03-18T23:58:07.491Z,39.54
